createdAt,value
2022-09-11T00:02:07.147Z,23.73
2022-09-11T00:04:55.371Z,23.50
2022-09-11T00:07:42.294Z,21.73
2022-09-11T00:10:29.346Z,24.07
2022-09-11T00:13:21.500Z,23.33
2022-09-11T00:16:27.676Z,26.30
2022-09-11T00:19:19.055Z,27.73
2022-09-11T00:22:06.231Z,29.67
2022-09-11T00:24:53.307Z,27.93
2022-09-11T00:27:40.564Z,27.10
2022-09-11T00:30:28.377Z,26.80
2022-09-11T00:33:16.331Z,27.40
2022-09-11T00:36:10.770Z,26.67
2022-09-11T00:38:59.042Z,28.27
2022-09-11T00:41:46.554Z,26.67
2022-09-11T00:44:33.514Z,26.47
2022-09-11T00:47:20.693Z,24.73
2022-09-11T00:50:19.441Z,26.20
2022-09-11T00:53:10.163Z,26.83
2022-09-11T00:56:01.483Z,27.37
2022-09-11T00:58:51.023Z,26.63
2022-09-11T01:01:38.230Z,28.93
2022-09-11T01:04:25.667Z,26.07
2022-09-11T01:07:15.507Z,28.30
2022-09-11T01:10:07.121Z,29.13
2022-09-11T01:13:10.756Z,32.70
2022-09-11T01:16:13.106Z,31.50
2022-09-11T01:19:27.463Z,29.03
2022-09-11T01:22:33.233Z,31.03
2022-09-11T01:25:46.857Z,30.83
2022-09-11T01:28:44.311Z,28.33
2022-09-11T01:31:38.237Z,30.90
2022-09-11T01:34:38.102Z,28.90
2022-09-11T01:37:40.097Z,32.17
2022-09-11T01:40:39.494Z,33.83
2022-09-11T01:43:34.512Z,34.23
2022-09-11T01:46:23.798Z,33.60
2022-09-11T01:49:19.775Z,37.60
2022-09-11T01:52:10.771Z,37.10
2022-09-11T01:55:09.574Z,38.87
2022-09-11T01:58:03.314Z,38.17
2022-09-11T02:00:55.606Z,40.47
2022-09-11T02:03:51.762Z,39.77
2022-09-11T02:06:47.281Z,36.03
2022-09-11T02:09:57.586Z,42.57
2022-09-11T02:13:00.536Z,41.47
2022-09-11T02:15:55.674Z,39.90
2022-09-11T02:18:51.753Z,39.60
2022-09-11T02:21:39.251Z,41.40
2022-09-11T02:24:27.642Z,40.43
2022-09-11T02:27:19.550Z,40.33
2022-09-11T02:30:07.822Z,38.27
2022-09-11T02:32:55.785Z,43.10
2022-09-11T02:35:50.306Z,41.13
2022-09-11T02:38:53.293Z,40.10
2022-09-11T02:41:43.136Z,45.53
2022-09-11T02:44:40.455Z,42.00
2022-09-11T02:47:52.632Z,41.60
2022-09-11T02:50:45.613Z,39.63
2022-09-11T02:54:02.324Z,40.13
2022-09-11T02:56:58.990Z,39.33
2022-09-11T02:59:54.160Z,44.93
2022-09-11T03:02:43.392Z,42.87
2022-09-11T03:05:30.306Z,39.03
2022-09-11T03:08:17.572Z,43.43
2022-09-11T03:11:04.674Z,46.27
2022-09-11T03:13:52.186Z,42.77
2022-09-11T03:16:39.172Z,43.17
2022-09-11T03:19:26.258Z,45.67
2022-09-11T03:22:14.822Z,42.80
2022-09-11T03:25:02.254Z,44.07
2022-09-11T03:27:49.918Z,40.90
2022-09-11T03:30:37.186Z,39.17
2022-09-11T03:33:24.364Z,42.33
2022-09-11T03:36:12.870Z,39.80
2022-09-11T03:39:00.787Z,42.90
2022-09-11T03:41:47.801Z,40.13
2022-09-11T03:44:34.737Z,42.70
2022-09-11T03:47:22.353Z,43.10
2022-09-11T03:50:10.245Z,43.30
2022-09-11T03:52:58.298Z,47.80
2022-09-11T03:55:46.454Z,44.87
2022-09-11T03:58:33.609Z,46.23
2022-09-11T04:01:20.826Z,40.90
2022-09-11T04:04:08.578Z,39.73
2022-09-11T04:06:56.776Z,40.00
2022-09-11T04:09:43.788Z,39.30
2022-09-11T04:12:30.742Z,39.80
2022-09-11T04:15:18.661Z,40.93
2022-09-11T04:18:07.454Z,36.87
2022-09-11T04:20:54.570Z,40.40
2022-09-11T04:23:42.180Z,42.30
2022-09-11T04:26:32.033Z,41.67
2022-09-11T04:29:19.211Z,44.43
2022-09-11T04:32:06.225Z,40.67
2022-09-11T04:34:53.419Z,40.67
2022-09-11T04:37:41.007Z,43.57
2022-09-11T04:40:27.985Z,41.37
2022-09-11T04:43:16.242Z,43.10
2022-09-11T04:46:04.933Z,44.00
2022-09-11T04:48:55.613Z,50.10
2022-09-11T04:51:43.801Z,45.57
2022-09-11T04:54:30.746Z,41.90
2022-09-11T04:57:17.810Z,42.10
2022-09-11T05:00:06.984Z,40.10
2022-09-11T05:02:54.832Z,40.63
2022-09-11T05:05:41.838Z,41.67
2022-09-11T05:08:28.800Z,40.77
2022-09-11T05:11:17.781Z,40.37
2022-09-11T05:14:05.051Z,39.77
2022-09-11T05:16:53.018Z,39.37
2022-09-11T05:19:40.753Z,39.37
2022-09-11T05:22:27.715Z,39.80
2022-09-11T05:25:14.749Z,40.23
2022-09-11T05:28:01.925Z,38.87
2022-09-11T05:30:48.910Z,40.23
2022-09-11T05:33:35.895Z,39.73
2022-09-11T05:36:24.185Z,40.40
2022-09-11T05:39:11.150Z,41.07
2022-09-11T05:41:58.322Z,42.70
2022-09-11T05:44:47.803Z,41.30
2022-09-11T05:47:34.808Z,40.33
2022-09-11T05:50:22.178Z,39.47
2022-09-11T05:53:09.355Z,40.27
2022-09-11T05:55:56.653Z,40.47
2022-09-11T05:58:46.212Z,39.87
2022-09-11T06:01:33.167Z,41.33
2022-09-11T06:04:20.943Z,39.83
2022-09-11T06:07:07.850Z,41.13
2022-09-11T06:09:55.833Z,40.60
2022-09-11T06:12:45.445Z,39.97
2022-09-11T06:15:46.297Z,40.20
2022-09-11T06:18:33.689Z,40.30
2022-09-11T06:21:22.717Z,39.17
2022-09-11T06:24:10.042Z,38.27
2022-09-11T06:26:56.956Z,38.47
2022-09-11T06:29:47.298Z,37.47
2022-09-11T06:32:34.285Z,37.23
2022-09-11T06:35:21.495Z,37.53
2022-09-11T06:38:08.753Z,36.77
2022-09-11T06:40:56.759Z,37.07
2022-09-11T06:43:44.466Z,36.53
2022-09-11T06:46:31.555Z,35.23
2022-09-11T06:49:18.816Z,33.50
2022-09-11T06:52:06.137Z,34.30
2022-09-11T06:54:53.418Z,32.97
2022-09-11T06:57:42.208Z,33.30
2022-09-11T07:03:05.604Z,35.77
2022-09-11T07:05:52.610Z,35.83
2022-09-11T07:08:39.600Z,35.60
2022-09-11T07:11:28.131Z,34.23
2022-09-11T07:14:15.048Z,33.10
2022-09-11T07:17:02.889Z,34.07
2022-09-11T07:19:49.918Z,34.03
2022-09-11T07:22:36.974Z,34.30
2022-09-11T07:25:24.275Z,31.77
2022-09-11T07:28:12.285Z,31.63
2022-09-11T07:31:16.383Z,34.23
2022-09-11T07:34:07.066Z,33.43
2022-09-11T07:36:55.540Z,32.60
2022-09-11T07:39:42.527Z,33.00
2022-09-11T07:42:29.749Z,32.63
2022-09-11T07:45:22.072Z,31.37
2022-09-11T07:48:10.057Z,32.53
2022-09-11T07:50:58.295Z,32.27
2022-09-11T07:53:47.423Z,31.83
2022-09-11T07:56:36.183Z,29.93
2022-09-11T07:59:23.206Z,30.60
2022-09-11T08:02:11.775Z,31.83
2022-09-11T08:04:59.254Z,29.67
2022-09-11T08:07:46.724Z,30.70
2022-09-11T08:10:40.942Z,29.87
2022-09-11T08:13:27.969Z,29.07
2022-09-11T08:16:14.925Z,30.77
2022-09-11T08:19:02.934Z,30.70
2022-09-11T08:21:51.181Z,28.67
2022-09-11T08:24:38.565Z,30.20
2022-09-11T08:27:25.781Z,29.70
2022-09-11T08:30:13.510Z,30.40
2022-09-11T08:33:01.464Z,30.23
2022-09-11T08:35:49.017Z,27.87
2022-09-11T08:38:39.508Z,26.60
2022-09-11T08:41:36.597Z,23.07
2022-09-11T08:44:47.798Z,24.80
2022-09-11T08:47:36.990Z,26.17
2022-09-11T08:50:40.777Z,28.20
2022-09-11T08:53:30.818Z,26.10
2022-09-11T08:56:22.490Z,27.57
2022-09-11T08:59:21.470Z,26.93
2022-09-11T09:02:33.382Z,26.63
2022-09-11T09:05:46.026Z,25.97
2022-09-11T09:09:03.965Z,25.67
2022-09-11T09:11:57.207Z,24.77
2022-09-11T09:14:51.873Z,23.20
2022-09-11T09:18:06.212Z,24.83
2022-09-11T09:21:21.453Z,24.40
2022-09-11T09:24:19.448Z,25.13
2022-09-11T09:27:07.722Z,25.20
2022-09-11T09:29:55.972Z,23.77
2022-09-11T09:33:17.193Z,23.57
2022-09-11T09:36:25.127Z,22.73
2022-09-11T09:39:17.751Z,22.13
2022-09-11T09:42:42.156Z,22.30
2022-09-11T09:45:50.305Z,19.60
2022-09-11T09:48:39.872Z,20.43
2022-09-11T09:51:27.260Z,19.90
2022-09-11T09:54:16.888Z,19.03
2022-09-11T09:57:12.146Z,18.70
2022-09-11T10:00:05.651Z,20.47
2022-09-11T10:02:58.154Z,20.40
2022-09-11T10:05:45.621Z,21.30
2022-09-11T10:08:36.706Z,21.23
2022-09-11T10:11:29.026Z,19.27
2022-09-11T10:14:49.305Z,19.63
2022-09-11T10:17:29.552Z,18.73
2022-09-11T10:20:19.306Z,19.27
2022-09-11T10:23:23.659Z,20.27
2022-09-11T10:26:18.712Z,19.20
2022-09-11T10:29:14.935Z,20.63
2022-09-11T10:32:03.001Z,20.17
2022-09-11T10:34:51.354Z,21.53
2022-09-11T10:37:39.241Z,23.17
2022-09-11T10:40:26.302Z,22.83
2022-09-11T10:43:25.799Z,25.23
2022-09-11T10:46:18.861Z,23.60
2022-09-11T10:49:05.906Z,22.40
2022-09-11T10:52:02.180Z,22.60
2022-09-11T10:55:07.691Z,23.73
2022-09-11T10:57:59.365Z,23.20
2022-09-11T11:00:47.880Z,23.00
2022-09-11T11:03:35.277Z,22.43
2022-09-11T11:06:53.585Z,21.73
2022-09-11T11:10:01.294Z,20.80
2022-09-11T11:13:26.458Z,21.03
2022-09-11T11:16:23.271Z,20.10
2022-09-11T11:19:38.750Z,19.93
2022-09-11T11:22:50.545Z,18.73
2022-09-11T11:26:12.698Z,18.70
2022-09-11T11:29:08.366Z,19.47
2022-09-11T11:32:36.776Z,17.53
2022-09-11T11:35:28.501Z,15.47
2022-09-11T11:38:29.243Z,15.93
2022-09-11T11:41:24.081Z,15.40
2022-09-11T11:44:15.931Z,15.10
2022-09-11T11:47:06.906Z,14.77
2022-09-11T11:50:11.569Z,14.27
2022-09-11T11:53:24.985Z,14.20
2022-09-11T11:56:25.905Z,13.80
2022-09-11T11:59:35.100Z,12.33
2022-09-11T12:02:45.566Z,11.53
2022-09-11T12:05:34.343Z,11.03
2022-09-11T12:08:22.223Z,11.63
2022-09-11T12:11:12.927Z,11.00
2022-09-11T12:14:00.614Z,10.93
2022-09-11T12:16:48.581Z,11.37
2022-09-11T12:19:35.538Z,8.70
2022-09-11T12:22:34.462Z,8.33
2022-09-11T12:25:21.435Z,9.80
2022-09-11T12:28:26.040Z,10.30
2022-09-11T12:31:18.002Z,9.57
2022-09-11T12:34:25.060Z,9.77
2022-09-11T12:37:20.323Z,8.57
2022-09-11T12:40:23.263Z,8.80
2022-09-11T12:43:19.314Z,8.93
2022-09-11T12:46:29.844Z,8.57
2022-09-11T12:49:22.961Z,8.57
2022-09-11T12:52:24.961Z,7.67
2022-09-11T12:55:33.339Z,7.50
2022-09-11T12:58:20.218Z,8.83
2022-09-11T13:01:36.115Z,7.23
2022-09-11T13:04:27.233Z,7.97
2022-09-11T13:07:41.685Z,8.63
2022-09-11T13:10:38.103Z,14.23
2022-09-11T13:13:40.437Z,12.97
2022-09-11T13:16:31.370Z,18.87
2022-09-11T13:19:21.827Z,18.17
2022-09-11T13:22:27.733Z,18.17
2022-09-11T13:25:22.993Z,17.93
2022-09-11T13:28:21.381Z,20.10
2022-09-11T13:31:25.026Z,21.20
2022-09-11T13:34:17.322Z,18.57
2022-09-11T13:37:11.643Z,20.20
2022-09-11T13:40:00.653Z,19.30
2022-09-11T13:42:49.005Z,20.40
2022-09-11T13:45:36.017Z,18.53
2022-09-11T13:48:24.263Z,20.93
2022-09-11T13:51:19.527Z,18.53
2022-09-11T13:54:15.306Z,21.47
2022-09-11T13:57:03.279Z,18.63
2022-09-11T13:59:55.063Z,19.20
2022-09-11T14:02:50.434Z,19.63
2022-09-11T14:05:37.433Z,18.90
2022-09-11T14:08:35.488Z,19.57
2022-09-11T14:11:29.494Z,17.43
2022-09-11T14:14:27.015Z,16.03
2022-09-11T14:17:14.706Z,14.47
2022-09-11T14:20:02.918Z,14.77
2022-09-11T14:22:55.530Z,12.87
2022-09-11T14:26:03.886Z,14.20
2022-09-11T14:28:58.150Z,13.00
2022-09-11T14:31:47.443Z,12.53
2022-09-11T14:34:34.426Z,13.47
2022-09-11T14:37:22.800Z,12.40
2022-09-11T14:40:18.214Z,12.97
2022-09-11T14:43:05.839Z,13.50
2022-09-11T14:45:54.647Z,12.87
2022-09-11T14:48:44.090Z,14.07
2022-09-11T14:51:31.089Z,12.27
2022-09-11T14:54:20.662Z,12.87
2022-09-11T14:57:23.173Z,14.90
2022-09-11T15:00:13.967Z,13.00
2022-09-11T15:03:00.982Z,14.37
2022-09-11T15:05:57.698Z,14.57
2022-09-11T15:08:46.023Z,14.07
2022-09-11T15:11:37.397Z,13.80
2022-09-11T15:14:52.338Z,13.03
2022-09-11T15:17:36.199Z,13.10
2022-09-11T15:20:25.481Z,12.93
2022-09-11T15:23:12.669Z,12.70
2022-09-11T15:26:03.441Z,12.07
2022-09-11T15:28:51.801Z,11.67
2022-09-11T15:31:39.259Z,12.37
2022-09-11T15:34:27.332Z,12.53
2022-09-11T15:37:17.015Z,11.97
2022-09-11T15:40:04.532Z,11.97
2022-09-11T15:42:52.042Z,12.07
2022-09-11T15:45:42.674Z,12.13
2022-09-11T15:48:31.053Z,11.50
2022-09-11T15:51:20.828Z,10.33
2022-09-11T15:54:07.821Z,10.80
2022-09-11T15:56:55.126Z,9.13
2022-09-11T15:59:42.126Z,9.23
2022-09-11T16:02:29.129Z,10.00
2022-09-11T16:05:16.351Z,8.97
2022-09-11T16:08:03.555Z,8.87
2022-09-11T16:10:51.334Z,9.63
2022-09-11T16:13:40.708Z,8.70
2022-09-11T16:16:28.035Z,9.03
2022-09-11T16:19:19.386Z,8.10
2022-09-11T16:22:07.302Z,9.27
2022-09-11T16:24:54.569Z,8.27
2022-09-11T16:27:43.742Z,8.70
2022-09-11T16:30:43.282Z,8.90
2022-09-11T16:33:34.436Z,8.23
2022-09-11T16:36:21.597Z,7.93
2022-09-11T16:39:11.057Z,6.90
2022-09-11T16:41:58.042Z,7.03
2022-09-11T16:44:45.101Z,6.87
2022-09-11T16:47:32.619Z,6.87
2022-09-11T16:50:19.865Z,6.33
2022-09-11T16:53:06.956Z,6.40
2022-09-11T16:55:54.229Z,6.33
2022-09-11T16:58:45.242Z,5.03
2022-09-11T17:01:32.285Z,5.60
2022-09-11T17:04:19.231Z,5.60
2022-09-11T17:07:06.215Z,5.43
2022-09-11T17:09:53.148Z,5.90
2022-09-11T17:12:40.140Z,5.37
2022-09-11T17:15:28.545Z,6.07
2022-09-11T17:18:16.439Z,6.27
2022-09-11T17:21:06.023Z,6.23
2022-09-11T17:23:54.917Z,6.17
2022-09-11T17:26:42.393Z,5.50
2022-09-11T17:29:29.992Z,5.80
2022-09-11T17:32:29.318Z,6.30
2022-09-11T17:35:17.081Z,5.87
2022-09-11T17:38:04.109Z,6.23
2022-09-11T17:40:56.834Z,6.13
2022-09-11T17:43:44.422Z,5.97
2022-09-11T17:46:31.764Z,6.00
2022-09-11T17:49:18.873Z,6.03
2022-09-11T17:52:05.899Z,6.93
2022-09-11T17:54:53.303Z,6.67
2022-09-11T17:57:43.446Z,7.07
2022-09-11T18:00:30.586Z,7.10
2022-09-11T18:03:18.377Z,7.17
2022-09-11T18:06:23.010Z,7.43
2022-09-11T18:09:13.869Z,7.50
2022-09-11T18:12:03.186Z,7.67
2022-09-11T18:14:50.370Z,7.33
2022-09-11T18:17:38.359Z,7.10
2022-09-11T18:20:25.371Z,6.90
2022-09-11T18:23:12.729Z,6.70
2022-09-11T18:26:01.193Z,8.20
2022-09-11T18:28:49.741Z,8.17
2022-09-11T18:31:50.080Z,7.77
2022-09-11T18:34:37.456Z,7.93
2022-09-11T18:37:24.566Z,8.60
2022-09-11T18:40:11.610Z,8.13
2022-09-11T18:43:00.062Z,8.73
2022-09-11T18:45:47.205Z,8.70
2022-09-11T18:48:35.343Z,9.47
2022-09-11T18:51:22.406Z,9.10
2022-09-11T18:54:18.370Z,9.17
2022-09-11T18:57:05.377Z,9.60
2022-09-11T18:59:52.976Z,8.30
2022-09-11T19:02:39.925Z,9.67
2022-09-11T19:05:27.034Z,8.63
2022-09-11T19:08:14.132Z,8.70
2022-09-11T19:11:16.614Z,10.67
2022-09-11T19:14:06.532Z,10.10
2022-09-11T19:16:53.905Z,9.97
2022-09-11T19:19:41.550Z,9.70
2022-09-11T19:22:29.267Z,9.77
2022-09-11T19:25:16.279Z,9.30
2022-09-11T19:28:03.779Z,9.90
2022-09-11T19:31:00.591Z,9.87
2022-09-11T19:33:47.914Z,10.87
2022-09-11T19:36:36.119Z,11.10
2022-09-11T19:39:23.295Z,10.57
2022-09-11T19:42:10.259Z,11.50
2022-09-11T19:44:57.209Z,10.03
2022-09-11T19:47:44.132Z,11.77
2022-09-11T19:50:35.970Z,11.20
2022-09-11T19:53:24.287Z,10.97
2022-09-11T19:56:12.353Z,10.57
2022-09-11T19:59:00.293Z,11.67
2022-09-11T20:01:47.492Z,10.90
2022-09-11T20:04:34.526Z,10.60
2022-09-11T20:07:21.803Z,11.87
2022-09-11T20:10:09.889Z,13.17
2022-09-11T20:12:56.819Z,12.23
2022-09-11T20:15:43.937Z,12.43
2022-09-11T20:18:31.650Z,13.27
2022-09-11T20:21:18.955Z,13.17
2022-09-11T20:24:07.386Z,13.03
2022-09-11T20:26:54.917Z,12.80
2022-09-11T20:29:43.629Z,12.60
2022-09-11T20:32:31.129Z,13.17
2022-09-11T20:35:18.256Z,12.57
2022-09-11T20:38:05.340Z,16.40
2022-09-11T20:40:52.464Z,13.93
2022-09-11T20:43:40.265Z,15.63
2022-09-11T20:46:27.443Z,14.77
2022-09-11T20:49:15.300Z,13.67
2022-09-11T20:52:04.181Z,14.97
2022-09-11T20:54:52.383Z,14.20
2022-09-11T20:57:39.959Z,13.73
2022-09-11T21:00:27.505Z,14.33
2022-09-11T21:03:15.314Z,13.63
2022-09-11T21:06:09.752Z,15.37
2022-09-11T21:08:59.331Z,14.80
2022-09-11T21:11:47.765Z,14.20
2022-09-11T21:14:35.389Z,14.23
2022-09-11T21:17:22.722Z,14.67
2022-09-11T21:20:10.352Z,15.90
2022-09-11T21:22:57.782Z,15.23
2022-09-11T21:25:47.676Z,15.30
2022-09-11T21:28:37.496Z,15.50
2022-09-11T21:31:25.214Z,15.13
2022-09-11T21:34:12.429Z,15.20
2022-09-11T21:36:59.525Z,15.00
2022-09-11T21:39:46.689Z,14.80
2022-09-11T21:42:33.945Z,13.63
2022-09-11T21:45:21.182Z,13.40
2022-09-11T21:48:09.544Z,15.00
2022-09-11T21:50:56.717Z,16.10
2022-09-11T21:53:46.208Z,14.23
2022-09-11T21:56:33.867Z,15.70
2022-09-11T21:59:20.954Z,15.17
2022-09-11T22:02:09.314Z,16.03
2022-09-11T22:04:56.504Z,15.87
2022-09-11T22:07:43.840Z,15.83
2022-09-11T22:10:31.292Z,14.80
2022-09-11T22:13:19.215Z,15.43
2022-09-11T22:16:11.258Z,14.70
2022-09-11T22:18:58.343Z,13.70
2022-09-11T22:21:45.537Z,14.20
2022-09-11T22:24:32.651Z,15.00
2022-09-11T22:27:19.805Z,15.97
2022-09-11T22:30:07.759Z,15.47
2022-09-11T22:32:55.224Z,15.67
2022-09-11T22:35:42.991Z,14.93
2022-09-11T22:38:31.936Z,15.83
2022-09-11T22:41:19.775Z,15.30
2022-09-11T22:44:07.591Z,16.90
2022-09-11T22:46:54.765Z,15.70
2022-09-11T22:49:41.814Z,16.40
2022-09-11T22:52:28.847Z,16.40
2022-09-11T22:55:16.235Z,15.20
2022-09-11T22:58:03.289Z,14.93
2022-09-11T23:00:54.669Z,16.17
2022-09-11T23:03:41.916Z,16.40
2022-09-11T23:06:47.481Z,15.70
2022-09-11T23:09:34.556Z,17.23
2022-09-11T23:12:21.733Z,16.10
2022-09-11T23:15:10.772Z,15.87
2022-09-11T23:17:57.833Z,15.80
2022-09-11T23:20:44.994Z,14.27
2022-09-11T23:23:32.083Z,14.70
2022-09-11T23:26:19.672Z,14.43
2022-09-11T23:29:06.908Z,14.03
2022-09-11T23:31:56.723Z,13.60
2022-09-11T23:34:43.725Z,13.90
2022-09-11T23:37:30.715Z,13.60
2022-09-11T23:40:17.826Z,15.47
2022-09-11T23:43:04.864Z,14.77
2022-09-11T23:45:51.894Z,14.80
2022-09-11T23:48:39.213Z,14.57
2022-09-11T23:51:27.030Z,14.17
2022-09-11T23:54:13.962Z,14.70
2022-09-11T23:57:01.018Z,14.67
2022-09-11T23:59:47.966Z,13.10
